Time;durP1;ratioP1;P1;durP2;ratioP2;P2;SDS_P1;SDS_P2;PMS_P1;PMS_P2;Temp;Humidity;BMP_temperature;BMP_pressure;BME280_temperature;BME280_humidity;BME280_pressure;Samples;Min_cycle;Max_cycle;Signal;HPM_P1;HPM_P2
2021/12/01 00:00:50;;;;;;;;;8.75;6.25;;;;;8.45;45.63;101181.22;146608;594;46020;-75
2021/12/01 00:03:43;;;;;;;;;11.00;10.25;;;;;8.49;45.56;101171.97;146607;586;46012;-74
2021/12/01 00:06:36;;;;;;;;;9.25;6.00;;;;;8.49;45.00;101187.47;146611;589;45021;-74
2021/12/01 00:09:28;;;;;;;;;5.00;5.00;;;;;8.46;44.99;101172.66;146605;718;46014;-72
2021/12/01 00:12:21;;;;;;;;;5.75;5.00;;;;;8.47;44.67;101189.06;146607;589;46019;-72
2021/12/01 00:15:13;;;;;;;;;6.50;5.00;;;;;8.48;44.50;101185.69;146607;579;46012;-72
2021/12/01 00:18:08;;;;;;;;;8.75;8.75;;;;;8.53;43.82;101192.06;146606;654;46020;-72
2021/12/01 00:21:01;;;;;;;;;9.75;9.00;;;;;8.49;45.27;101193.53;146606;604;45914;-73
2021/12/01 00:23:53;;;;;;;;;11.50;7.75;;;;;8.44;45.63;101194.94;146607;637;46020;-72
2021/12/01 00:26:46;;;;;;;;;10.25;9.75;;;;;8.41;45.94;101192.16;146606;629;46016;-75
2021/12/01 00:29:41;;;;;;;;;11.50;11.50;;;;;8.39;45.46;101195.41;146607;627;46020;-75
2021/12/01 00:32:34;;;;;;;;;18.50;14.00;;;;;8.40;46.40;101202.38;146604;607;46016;-75
2021/12/01 00:35:27;;;;;;;;;12.50;11.25;;;;;8.37;46.74;101200.44;146607;583;46021;-75
2021/12/01 00:38:20;;;;;;;;;12.50;10.75;;;;;8.31;46.32;101200.91;146605;600;46012;-72
2021/12/01 00:41:13;;;;;;;;;7.75;7.00;;;;;8.32;45.95;101209.59;146608;612;46020;-71
2021/12/01 00:44:07;;;;;;;;;11.25;9.25;;;;;8.29;46.20;101196.44;146606;615;46913;-71
2021/12/01 00:47:06;;;;;;;;;10.00;8.00;;;;;8.31;46.29;101202.59;146610;573;46010;-70
2021/12/01 00:49:58;;;;;;;;;11.50;9.50;;;;;8.31;46.54;101203.50;146605;658;46014;-73
2021/12/01 00:52:51;;;;;;;;;12.75;9.75;;;;;7.25;46.48;101024.09;146605;565;46020;-70
2021/12/01 00:55:43;;;;;;;;;13.25;9.75;;;;;8.24;46.87;101206.47;146604;584;46015;-73
2021/12/01 00:58:36;;;;;;;;;11.00;11.00;;;;;8.20;46.53;101201.88;146607;565;46020;-72
2021/12/01 01:01:28;;;;;;;;;10.25;9.25;;;;;8.18;47.26;101207.72;146604;673;46012;-72
2021/12/01 01:04:21;;;;;;;;;10.00;9.00;;;;;8.14;46.93;101201.47;146608;566;46021;-73
2021/12/01 01:07:13;;;;;;;;;7.00;6.25;;;;;8.13;46.41;101191.00;146603;613;46016;-72
2021/12/01 01:10:17;;;;;;;;;5.50;5.25;;;;;8.11;46.34;101201.25;146609;593;46010;-74
2021/12/01 01:16:23;;;;;;;;;9.00;8.25;;;;;8.08;46.40;101191.59;146610;629;46014;-72
2021/12/01 01:19:18;;;;;;;;;6.50;5.00;;;;;8.05;45.80;101204.31;146604;569;46017;-73
2021/12/01 01:22:12;;;;;;;;;6.25;6.25;;;;;8.06;46.42;101188.00;146608;577;46020;-74
2021/12/01 01:25:04;;;;;;;;;10.25;7.00;;;;;8.08;46.16;101176.09;146606;587;46914;-74
2021/12/01 01:27:57;;;;;;;;;8.00;6.75;;;;;8.09;46.09;101193.37;146606;606;46021;-75
2021/12/01 01:30:49;;;;;;;;;13.75;7.75;;;;;8.10;45.81;101186.56;146605;584;46016;-71
2021/12/01 01:33:42;;;;;;;;;5.00;4.00;;;;;8.07;45.54;101179.50;146611;564;45021;-71
2021/12/01 01:36:34;;;;;;;;;3.75;3.00;;;;;8.08;45.88;101175.22;146604;571;46914;-71
2021/12/01 01:39:27;;;;;;;;;4.25;4.00;;;;;8.08;46.14;101175.22;146608;611;46020;-72
2021/12/01 01:42:19;;;;;;;;;6.25;5.00;;;;;8.08;46.69;101163.19;146605;564;46914;-72
2021/12/01 01:45:12;;;;;;;;;7.25;6.50;;;;;8.03;46.71;101164.56;146610;602;45020;-70
2021/12/01 01:48:06;;;;;;;;;7.75;6.00;;;;;7.96;46.94;101161.47;146606;613;46031;-72
2021/12/01 01:50:58;;;;;;;;;8.25;6.75;;;;;7.87;47.30;101167.78;146606;585;46020;-72
2021/12/01 01:53:54;;;;;;;;;6.50;5.25;;;;;7.80;47.37;101167.25;146607;582;46012;-73
2021/12/01 01:56:47;;;;;;;;;7.00;5.50;;;;;7.72;47.25;101170.97;146609;570;46020;-73
2021/12/01 01:59:39;;;;;;;;;5.25;4.75;;;;;7.67;46.88;101162.03;146603;579;47014;-72
2021/12/01 02:02:31;;;;;;;;;6.25;6.25;;;;;7.66;47.48;101150.78;146609;668;46021;-73
2021/12/01 02:05:24;;;;;;;;;5.00;4.00;;;;;7.66;47.78;101149.91;146608;607;45022;-72
2021/12/01 02:08:19;;;;;;;;;6.00;6.00;;;;;7.67;47.82;101150.03;146608;607;46020;-72
2021/12/01 02:11:14;;;;;;;;;6.00;6.00;;;;;7.68;48.13;101141.47;146607;607;46012;-75
2021/12/01 02:14:07;;;;;;;;;9.50;6.00;;;;;7.73;47.58;101146.97;146609;574;46010;-73
2021/12/01 02:17:01;;;;;;;;;10.75;7.25;;;;;7.72;47.48;101150.34;146606;637;46013;-75
2021/12/01 02:19:56;;;;;;;;;7.00;5.75;;;;;7.71;47.37;101156.28;146608;681;45914;-76
2021/12/01 02:22:49;;;;;;;;;5.50;5.00;;;;;7.70;47.43;101151.94;146605;601;46914;-76
2021/12/01 02:25:41;;;;;;;;;4.00;3.75;;;;;7.68;47.40;101149.22;146610;606;46010;-75
2021/12/01 02:28:33;;;;;;;;;3.75;2.50;;;;;7.69;47.40;101144.97;146605;574;47012;-77
2021/12/01 02:31:28;;;;;;;;;5.75;4.50;;;;;7.70;47.37;101151.94;146608;615;46010;-78
2021/12/01 02:34:24;;;;;;;;;4.00;4.00;;;;;7.69;47.25;101150.12;146606;578;46012;-75
2021/12/01 02:37:16;;;;;;;;;6.00;6.00;;;;;7.71;48.26;101152.03;146609;563;45020;-74
2021/12/01 02:40:09;;;;;;;;;6.00;5.00;;;;;7.73;48.21;101146.97;146606;572;46013;-73
2021/12/01 02:43:02;;;;;;;;;4.00;4.00;;;;;7.69;46.57;101150.12;146608;588;46020;-74
2021/12/01 02:45:58;;;;;;;;;6.50;5.50;;;;;7.67;47.11;101143.97;146608;600;46012;-72
2021/12/01 02:48:51;;;;;;;;;8.25;6.75;;;;;7.62;47.49;101159.13;146607;586;46020;-78
2021/12/01 02:51:43;;;;;;;;;7.25;6.50;;;;;7.59;47.83;101164.97;146606;590;46012;-71
2021/12/01 02:54:35;;;;;;;;;5.00;5.00;;;;;7.57;48.22;101160.47;146607;594;46010;-71
2021/12/01 02:57:28;;;;;;;;;7.00;6.00;;;;;7.55;48.30;101152.66;146607;569;46012;-70
2021/12/01 03:01:02;;;;;;;;;6.25;5.50;;;;;7.51;48.89;101157.50;146608;644;47014;-70
2021/12/01 03:03:56;;;;;;;;;6.00;5.75;;;;;7.45;48.58;101159.66;146604;586;46016;-72
2021/12/01 03:06:49;;;;;;;;;6.25;5.25;;;;;7.42;48.56;101162.91;146609;600;46020;-71
2021/12/01 03:09:42;;;;;;;;;8.25;7.50;;;;;7.40;48.30;101160.19;146607;577;46013;-71
2021/12/01 03:12:36;;;;;;;;;7.75;5.75;;;;;7.34;48.35;101162.34;146602;612;46914;-71
2021/12/01 03:15:30;;;;;;;;;7.00;6.00;;;;;7.32;48.13;101168.16;146604;588;46914;-74
2021/12/01 03:18:22;;;;;;;;;8.50;7.25;;;;;7.31;48.56;101166.38;146607;589;46020;-74
2021/12/01 03:21:15;;;;;;;;;7.00;6.00;;;;;7.30;48.13;101173.25;146605;585;46012;-80
2021/12/01 03:24:08;;;;;;;;;5.50;5.00;;;;;7.29;48.15;101163.72;146608;595;46021;-79
2021/12/01 03:27:00;;;;;;;;;6.75;5.50;;;;;7.30;48.35;101164.59;146606;655;46016;-79
2021/12/01 03:29:53;;;;;;;;;10.50;6.75;;;;;7.34;48.37;101156.28;146609;626;46010;-72
2021/12/01 03:32:46;;;;;;;;;8.00;7.00;;;;;7.36;48.20;101165.94;146603;580;46016;-71
2021/12/01 03:35:39;;;;;;;;;7.00;5.00;;;;;7.37;47.72;101164.25;146609;576;46020;-72
2021/12/01 03:38:32;;;;;;;;;5.25;4.25;;;;;7.32;48.07;101163.00;146608;606;46016;-71
2021/12/01 03:41:24;;;;;;;;;5.25;5.25;;;;;7.20;49.20;101173.38;146610;578;46010;-72
2021/12/01 03:44:16;;;;;;;;;7.00;6.00;;;;;7.10;49.65;101168.31;146606;614;46914;-73
2021/12/01 03:47:08;;;;;;;;;7.75;6.25;;;;;7.02;49.57;101154.88;146607;647;46021;-73
2021/12/01 03:50:01;;;;;;;;;7.25;6.00;;;;;6.94;49.99;101156.00;146607;575;46012;-73
2021/12/01 03:52:52;;;;;;;;;4.00;4.00;;;;;6.91;50.66;101160.94;146608;578;46010;-73
2021/12/01 03:55:45;;;;;;;;;8.00;7.00;;;;;6.85;51.00;101157.91;146607;605;46914;-74
2021/12/01 03:58:37;;;;;;;;;5.25;5.00;;;;;6.79;51.15;101158.38;146609;586;45031;-74
2021/12/01 04:01:29;;;;;;;;;8.50;8.00;;;;;6.72;51.29;101151.87;146605;606;46914;-73
2021/12/01 04:04:21;;;;;;;;;5.00;5.00;;;;;6.64;52.15;101146.94;146608;582;45028;-71
2021/12/01 04:07:14;;;;;;;;;6.00;4.75;;;;;6.53;51.96;101169.34;146605;584;46012;-71
2021/12/01 04:10:09;;;;;;;;;6.00;5.50;;;;;6.45;52.26;101160.16;146608;591;46010;-71
2021/12/01 04:13:02;;;;;;;;;7.00;6.00;;;;;6.41;52.42;101158.13;146607;618;46012;-72
2021/12/01 04:15:54;;;;;;;;;6.50;5.00;;;;;6.30;52.77;101151.28;146608;605;46021;-74
2021/12/01 04:18:46;;;;;;;;;7.00;5.50;;;;;6.18;52.86;101159.88;146608;575;46012;-74
2021/12/01 04:21:38;;;;;;;;;7.00;6.25;;;;;6.14;53.14;101160.44;146610;575;46010;-74
2021/12/01 04:24:31;;;;;;;;;9.00;5.25;;;;;6.10;53.37;101160.06;146608;605;46012;-74
2021/12/01 04:27:23;;;;;;;;;10.25;7.00;;;;;6.03;53.50;101162.97;146607;618;47020;-73
2021/12/01 04:30:19;;;;;;;;;5.00;4.75;;;;;5.97;53.53;101159.13;146606;596;46017;-73
2021/12/01 04:33:12;;;;;;;;;9.25;7.00;;;;;5.88;53.88;101153.25;146612;596;46010;-73
2021/12/01 04:36:04;;;;;;;;;9.75;6.50;;;;;5.81;54.33;101162.97;146609;616;46016;-74
2021/12/01 04:38:56;;;;;;;;;7.50;6.00;;;;;5.72;54.44;101158.00;146609;704;46011;-74
2021/12/01 04:41:55;;;;;;;;;9.00;9.00;;;;;5.62;55.47;101158.97;146607;581;46016;-74
2021/12/01 04:44:47;;;;;;;;;9.75;9.00;;;;;5.48;54.89;101164.69;146608;575;46015;-72
2021/12/01 04:47:41;;;;;;;;;9.25;7.50;;;;;5.41;55.05;101168.47;146606;625;46014;-72
2021/12/01 04:50:33;;;;;;;;;11.75;9.25;;;;;5.42;55.15;101171.91;146610;615;45584;-71
2021/12/01 04:53:27;;;;;;;;;11.25;9.75;;;;;5.44;55.71;101170.38;146606;632;46013;-72
2021/12/01 04:56:21;;;;;;;;;11.00;8.25;;;;;5.42;55.08;101172.84;146609;630;46020;-72
2021/12/01 04:59:14;;;;;;;;;10.00;8.75;;;;;5.41;55.75;101173.59;146605;566;46016;-73
2021/12/01 05:02:06;;;;;;;;;16.50;12.00;;;;;5.40;55.23;101169.25;146609;650;46010;-73
2021/12/01 05:04:58;;;;;;;;;10.00;10.00;;;;;5.35;56.05;101162.84;146606;576;47012;-71
2021/12/01 05:07:51;;;;;;;;;10.25;10.00;;;;;5.29;55.68;101177.78;146608;575;46010;-74
2021/12/01 05:10:44;;;;;;;;;12.25;11.25;;;;;5.30;55.80;101184.72;146605;642;46016;-74
2021/12/01 05:13:36;;;;;;;;;12.75;11.00;;;;;5.31;56.28;101186.53;146607;603;46020;-74
2021/12/01 05:16:28;;;;;;;;;16.50;13.75;;;;;5.28;56.07;101184.59;146605;565;46012;-74
2021/12/01 05:19:20;;;;;;;;;14.50;13.00;;;;;5.28;56.09;101196.56;146608;569;46010;-74
2021/12/01 05:22:12;;;;;;;;;15.50;13.00;;;;;5.27;56.83;101187.06;146605;687;46013;-76
2021/12/01 05:25:05;;;;;;;;;18.00;15.50;;;;;5.24;57.47;101185.13;146608;631;46020;-78
2021/12/01 05:27:57;;;;;;;;;12.75;12.75;;;;;5.21;56.76;101187.47;146604;692;46012;-75
2021/12/01 05:30:49;;;;;;;;;15.50;14.25;;;;;5.26;55.25;101200.66;146610;581;45022;-76
2021/12/01 05:33:42;;;;;;;;;12.50;12.00;;;;;5.33;55.80;101200.41;146606;577;45509;-76
2021/12/01 05:36:34;;;;;;;;;15.25;13.00;;;;;5.39;56.20;101190.59;146609;631;45020;-77
2021/12/01 05:39:26;;;;;;;;;18.25;13.75;;;;;5.44;55.67;101199.56;146605;613;46012;-74
2021/12/01 05:42:19;;;;;;;;;11.50;10.25;;;;;5.46;55.75;101181.69;146608;574;46020;-75
2021/12/01 05:45:11;;;;;;;;;13.25;13.25;;;;;5.39;56.33;101194.81;146605;579;46013;-75
2021/12/01 05:48:03;;;;;;;;;13.75;11.75;;;;;5.33;55.84;101192.69;146608;611;46020;-74
2021/12/01 05:50:55;;;;;;;;;16.00;14.00;;;;;5.31;56.11;101191.66;146606;663;46012;-74
2021/12/01 05:53:48;;;;;;;;;16.75;15.00;;;;;5.37;55.78;101191.25;146607;573;46021;-71
2021/12/01 05:56:40;;;;;;;;;13.00;13.00;;;;;5.39;56.15;101208.59;146609;606;45015;-72
2021/12/01 05:59:33;;;;;;;;;12.75;12.00;;;;;5.39;56.00;101220.53;146607;612;46021;-74
2021/12/01 06:02:25;;;;;;;;;11.50;11.50;;;;;5.39;56.25;101226.63;146607;684;46012;-74
2021/12/01 06:05:17;;;;;;;;;13.75;10.75;;;;;5.40;55.99;101232.66;146606;684;46020;-74
2021/12/01 06:08:09;;;;;;;;;12.00;11.00;;;;;5.43;56.42;101230.31;146607;590;46012;-74
2021/12/01 06:11:01;;;;;;;;;32.00;28.50;;;;;5.42;56.98;101224.28;146607;608;46010;-74
2021/12/01 06:13:54;;;;;;;;;20.25;14.25;;;;;5.48;57.07;101235.06;146609;654;45914;-73
2021/12/01 06:16:47;;;;;;;;;12.25;12.25;;;;;5.83;56.96;101236.94;146604;575;47913;-74
2021/12/01 06:19:40;;;;;;;;;14.00;11.25;;;;;5.89;55.04;101041.81;146610;680;45016;-75
2021/12/01 06:22:31;;;;;;;;;21.00;18.75;;;;;8.38;50.23;101216.81;146610;625;46010;-73
2021/12/01 06:25:24;;;;;;;;;17.00;16.50;;;;;9.78;49.99;101232.00;146606;600;46016;-72
2021/12/01 06:28:15;;;;;;;;;12.50;11.25;;;;;11.11;47.13;101229.63;146609;586;46010;-70
2021/12/01 06:31:08;;;;;;;;;10.00;10.00;;;;;12.24;43.73;101221.97;146608;625;45914;-69
2021/12/01 06:34:00;;;;;;;;;13.00;10.25;;;;;13.06;43.41;101217.50;146610;610;45914;-69
2021/12/01 06:36:52;;;;;;;;;22.00;19.75;;;;;13.66;42.45;101212.56;146608;573;46016;-71
2021/12/01 06:39:45;;;;;;;;;21.00;19.00;;;;;14.00;41.02;101230.63;146609;649;45020;-72
2021/12/01 06:42:38;;;;;;;;;19.75;16.25;;;;;14.35;40.16;101233.03;146607;607;45021;-71
2021/12/01 06:45:30;;;;;;;;;18.00;15.75;;;;;14.74;39.67;101220.84;146609;564;45021;-73
2021/12/01 06:48:23;;;;;;;;;25.25;19.50;;;;;15.34;39.58;101225.91;146607;563;46012;-74
2021/12/01 06:51:15;;;;;;;;;24.50;22.25;;;;;15.96;38.83;101229.22;146606;615;46020;-74
2021/12/01 06:54:07;;;;;;;;;20.75;20.50;;;;;16.58;38.21;101246.28;146604;612;47913;-74
2021/12/01 06:56:59;;;;;;;;;26.00;20.50;;;;;17.21;36.66;101232.72;146610;580;45020;-84
2021/12/01 06:59:51;;;;;;;;;24.75;19.50;;;;;17.67;33.45;101232.44;146606;588;45914;-77
2021/12/01 07:02:43;;;;;;;;;43.00;33.50;;;;;17.75;35.78;101237.91;146608;599;46020;-75
2021/12/01 07:05:36;;;;;;;;;30.00;26.00;;;;;17.82;33.25;101234.66;146604;574;47017;-75
2021/12/01 07:08:28;;;;;;;;;37.25;30.25;;;;;17.73;35.23;101235.25;146604;595;46020;-74
2021/12/01 07:11:21;;;;;;;;;33.25;29.00;;;;;17.80;35.49;101243.34;146608;574;46012;-73
2021/12/01 07:14:13;;;;;;;;;31.00;26.25;;;;;18.06;35.01;101244.09;146606;627;46021;-75
2021/12/01 07:17:06;;;;;;;;;30.50;28.25;;;;;18.27;34.42;101236.81;146607;640;46016;-80
2021/12/01 07:19:58;;;;;;;;;28.50;25.00;;;;;18.48;33.50;101240.91;146609;569;45049;-83
2021/12/01 07:22:50;;;;;;;;;30.50;24.50;;;;;18.58;33.59;101229.78;146605;582;47012;-83
2021/12/01 07:25:43;;;;;;;;;25.25;24.00;;;;;18.56;33.52;101219.22;146610;585;45020;-82
2021/12/01 07:28:36;;;;;;;;;18.50;16.50;;;;;18.39;33.60;101216.16;146605;623;46013;-79
2021/12/01 07:31:28;;;;;;;;;19.25;15.75;;;;;18.15;33.70;101218.09;146609;563;46010;-90
2021/12/01 07:34:21;;;;;;;;;18.25;14.50;;;;;17.82;34.20;101218.00;146605;574;46012;-90
2021/12/01 07:37:18;;;;;;;;;21.00;21.00;;;;;17.48;34.71;101212.63;146608;592;46010;-90
2021/12/01 07:40:11;;;;;;;;;13.75;12.75;;;;;17.05;34.03;101198.16;146604;575;46016;-88
2021/12/01 07:43:03;;;;;;;;;12.50;11.75;;;;;16.56;35.24;101212.19;146608;674;45021;-89
2021/12/01 07:45:56;;;;;;;;;10.00;9.75;;;;;16.24;35.12;101225.88;146607;627;46012;-91
2021/12/01 07:48:48;;;;;;;;;11.50;9.25;;;;;16.05;35.70;101222.59;146610;566;46010;-85
2021/12/01 07:51:40;;;;;;;;;12.00;10.00;;;;;15.96;36.60;101222.25;146604;607;46017;-83
2021/12/01 07:54:33;;;;;;;;;9.00;8.00;;;;;15.89;38.51;101218.50;146607;618;46020;-84
2021/12/01 07:57:25;;;;;;;;;9.25;8.75;;;;;15.88;41.44;101216.72;146607;684;46013;-80
2021/12/01 08:00:18;;;;;;;;;8.50;8.25;;;;;16.01;40.57;101218.09;146609;594;46020;-78
2021/12/01 08:03:11;;;;;;;;;8.75;7.50;;;;;16.17;38.83;101230.00;146608;605;46012;-79
2021/12/01 08:06:02;;;;;;;;;8.50;7.75;;;;;16.30;36.25;101213.00;146608;566;46010;-79
2021/12/01 08:08:55;;;;;;;;;12.50;8.00;;;;;16.23;35.15;101225.00;146607;569;46012;-78
2021/12/01 08:11:46;;;;;;;;;8.75;6.75;;;;;16.02;35.68;101224.19;146607;594;46020;-77
2021/12/01 08:14:38;;;;;;;;;10.25;9.00;;;;;15.79;36.83;101223.31;146604;588;46016;-79
2021/12/01 08:17:31;;;;;;;;;11.00;10.00;;;;;15.64;35.66;101227.13;146606;587;46020;-78
2021/12/01 08:20:25;;;;;;;;;10.50;7.75;;;;;15.53;37.01;101236.25;146605;704;46013;-77
2021/12/01 08:23:17;;;;;;;;;8.50;7.50;;;;;14.55;37.33;101079.16;146609;570;46029;-77
2021/12/01 08:26:10;;;;;;;;;14.00;10.00;;;;;15.44;37.48;101236.78;146603;654;46016;-77
2021/12/01 08:29:02;;;;;;;;;14.50;13.00;;;;;15.46;37.05;101237.75;146606;594;46021;-78
2021/12/01 08:31:54;;;;;;;;;8.50;8.50;;;;;15.48;35.69;101237.78;146606;576;46012;-78
2021/12/01 08:34:51;;;;;;;;;6.25;5.50;;;;;15.46;34.67;101227.28;146605;565;46020;-77
2021/12/01 08:37:43;;;;;;;;;16.50;15.00;;;;;15.53;38.26;101240.59;146605;608;46017;-77
2021/12/01 08:40:35;;;;;;;;;5.75;5.75;;;;;15.61;35.44;101229.63;146607;602;46020;-78
2021/12/01 08:43:28;;;;;;;;;16.00;14.50;;;;;15.64;37.58;101213.16;146605;577;46013;-78
2021/12/01 08:46:20;;;;;;;;;21.25;19.00;;;;;15.70;37.49;101216.94;146609;614;45032;-78
2021/12/01 08:49:12;;;;;;;;;5.25;3.50;;;;;15.80;35.68;101212.94;146606;570;46016;-78
2021/12/01 08:52:04;;;;;;;;;16.00;14.25;;;;;15.87;37.11;101217.56;146607;619;46020;-77
2021/12/01 08:54:57;;;;;;;;;4.00;4.00;;;;;15.94;36.89;101216.94;146606;574;46012;-79
2021/12/01 08:57:49;;;;;;;;;9.75;9.50;;;;;16.07;38.60;101210.44;146607;588;46020;-77
2021/12/01 09:00:46;;;;;;;;;5.75;5.00;;;;;16.24;36.05;101210.19;146604;587;46016;-77
2021/12/01 09:03:38;;;;;;;;;10.25;9.50;;;;;16.38;36.76;101207.19;146606;658;46020;-77
2021/12/01 09:06:30;;;;;;;;;12.75;9.00;;;;;16.58;36.73;101217.50;146607;564;46013;-78
2021/12/01 09:09:23;;;;;;;;;2.25;2.25;;;;;16.73;36.47;101217.09;146608;569;46020;-81
2021/12/01 09:12:18;;;;;;;;;2.50;1.00;;;;;16.83;34.16;101201.81;146605;644;46016;-81
2021/12/01 09:15:10;;;;;;;;;2.00;2.00;;;;;16.82;35.45;101194.78;146606;640;46029;-82
2021/12/01 09:18:03;;;;;;;;;3.50;2.25;;;;;16.83;35.74;101198.31;146600;595;47914;-81
2021/12/01 09:20:56;;;;;;;;;3.00;1.75;;;;;16.82;35.25;101197.41;146608;579;46020;-81
2021/12/01 09:23:48;;;;;;;;;1.67;0.00;;;;;16.78;34.58;101186.78;146602;590;47914;-81
2021/12/01 09:26:40;;;;;;;;;1.33;1.33;;;;;16.74;33.66;101196.22;146611;610;46010;-81
2021/12/01 09:29:33;;;;;;;;;2.00;0.67;;;;;16.68;34.73;101180.31;146607;573;46012;-81
2021/12/01 09:32:25;;;;;;;;;1.75;1.75;;;;;16.73;34.96;101176.13;146607;565;46020;-81
2021/12/01 09:35:19;;;;;;;;;1.33;1.33;;;;;15.83;34.29;101011.72;146607;599;46013;-81
2021/12/01 09:38:13;;;;;;;;;2.00;1.75;;;;;16.80;34.64;101183.38;146609;613;46020;-80
2021/12/01 09:41:05;;;;;;;;;3.00;1.67;;;;;16.82;34.55;101191.25;146607;637;46012;-81
2021/12/01 09:44:00;;;;;;;;;1.00;1.00;;;;;15.92;34.81;101021.59;146606;597;46020;-80
2021/12/01 09:46:53;;;;;;;;;2.67;1.67;;;;;16.95;35.86;101185.59;146606;602;46012;-81
2021/12/01 09:49:46;;;;;;;;;1.67;1.67;;;;;17.10;33.93;101187.81;146608;621;46011;-82
2021/12/01 09:52:39;;;;;;;;;0.67;0.67;;;;;17.15;34.46;101180.13;146606;611;46914;-80
2021/12/01 09:55:31;;;;;;;;;0.67;0.67;;;;;17.12;34.85;101166.91;146609;621;46010;-80
2021/12/01 09:58:30;;;;;;;;;0.67;0.00;;;;;17.17;34.42;101168.84;146608;583;46016;-80
2021/12/01 10:01:26;;;;;;;;;3.25;2.25;;;;;17.23;34.13;101168.16;146608;619;46020;-81
2021/12/01 10:04:18;;;;;;;;;0.50;0.50;;;;;17.29;34.59;101152.63;146606;566;46014;-80
2021/12/01 10:07:34;;;;;;;;;1.33;1.33;;;;;17.30;34.75;101143.91;146609;693;46010;-80
2021/12/01 10:10:26;;;;;;;;;1.75;1.50;;;;;17.33;33.91;101144.00;146602;614;46036;-81
2021/12/01 10:13:26;;;;;;;;;1.00;1.00;;;;;17.38;34.15;101141.50;146609;613;45021;-80
2021/12/01 10:16:20;;;;;;;;;2.00;2.00;;;;;17.46;34.12;101145.25;146608;582;46012;-80
2021/12/01 10:19:14;;;;;;;;;4.67;3.67;;;;;17.53;34.29;101132.34;146610;647;46020;-80
2021/12/01 10:22:15;;;;;;;;;4.25;4.25;;;;;17.58;34.50;101132.50;146607;598;46016;-81
2021/12/01 10:25:07;;;;;;;;;2.00;2.00;;;;;17.61;34.06;101136.97;146609;574;46021;-80
2021/12/01 10:27:59;;;;;;;;;1.00;1.00;;;;;17.67;33.61;101134.50;146605;575;46017;-80
2021/12/01 10:30:52;;;;;;;;;3.00;2.33;;;;;17.69;34.09;101140.66;146607;641;46020;-81
2021/12/01 10:33:45;;;;;;;;;5.00;2.00;;;;;17.77;33.81;101142.72;146606;656;46013;-80
2021/12/01 10:36:37;;;;;;;;;1.33;1.33;;;;;17.87;35.20;101146.47;146605;575;46020;-81
2021/12/01 10:39:30;;;;;;;;;10.25;10.25;;;;;18.09;35.56;101134.84;146607;642;46016;-81
2021/12/01 10:42:22;;;;;;;;;2.00;2.00;;;;;18.37;33.55;101131.22;146608;582;47010;-79
2021/12/01 10:45:14;;;;;;;;;2.00;1.67;;;;;18.56;33.09;101129.94;146604;673;47012;-81
2021/12/01 10:48:08;;;;;;;;;1.67;1.67;;;;;18.69;34.54;101120.63;146609;579;46010;-79
2021/12/01 10:51:01;;;;;;;;;26.75;23.50;;;;;18.78;34.12;101136.62;146602;569;47014;-79
2021/12/01 10:54:00;;;;;;;;;29.50;24.00;;;;;18.91;34.52;101120.34;146609;624;46020;-79
2021/12/01 10:57:26;;;;;;;;;32.50;29.75;;;;;18.05;36.01;100937.94;146604;577;46013;-81
2021/12/01 11:00:26;;;;;;;;;6.00;6.00;;;;;19.26;34.03;101103.59;146607;691;46020;-80
2021/12/01 11:03:20;;;;;;;;;7.75;7.25;;;;;19.39;33.70;101103.00;146604;584;46017;-80
2021/12/01 11:06:20;;;;;;;;;10.00;7.25;;;;;19.51;34.18;101097.13;146607;646;46020;-80
2021/12/01 11:09:12;;;;;;;;;6.00;4.67;;;;;19.59;33.86;101096.44;146608;615;46016;-81
2021/12/01 11:12:07;;;;;;;;;22.75;20.25;;;;;19.70;34.40;101093.16;146606;572;46021;-80
2021/12/01 11:15:00;;;;;;;;;15.25;11.75;;;;;19.89;33.97;101087.38;146604;571;46914;-80
2021/12/01 11:17:54;;;;;;;;;9.33;7.00;;;;;20.02;32.41;101084.09;146607;648;46020;-79
2021/12/01 11:20:55;;;;;;;;;16.75;16.75;;;;;20.05;32.64;101076.25;146603;624;46016;-81
2021/12/01 11:23:54;;;;;;;;;19.75;17.25;;;;;20.05;34.07;101073.63;146608;576;46020;-78
2021/12/01 11:26:49;;;;;;;;;8.00;8.00;;;;;20.11;33.19;101078.13;146605;628;46897;-80
2021/12/01 11:29:41;;;;;;;;;8.33;6.67;;;;;20.13;32.62;101083.44;146603;640;46020;-80
2021/12/01 11:32:33;;;;;;;;;11.67;8.00;;;;;20.19;32.40;101078.28;146606;582;46017;-80
2021/12/01 11:35:25;;;;;;;;;14.00;13.75;;;;;20.24;33.23;101066.06;146607;612;46010;-80
2021/12/01 11:38:19;;;;;;;;;18.50;17.75;;;;;20.39;33.29;101073.34;146604;590;46012;-80
2021/12/01 11:41:12;;;;;;;;;5.33;4.67;;;;;20.53;32.94;101069.22;146607;651;46021;-80
2021/12/01 11:44:07;;;;;;;;;2.00;2.00;;;;;20.65;32.44;101053.59;146607;606;46012;-80
2021/12/01 11:46:59;;;;;;;;;4.00;3.33;;;;;20.68;32.42;101056.28;146606;651;46020;-80
2021/12/01 11:49:55;;;;;;;;;2.00;2.00;;;;;20.70;32.60;101038.75;146608;571;46012;-80
2021/12/01 11:53:05;;;;;;;;;2.67;2.67;;;;;20.72;33.21;101038.78;146611;580;46021;-80
2021/12/01 11:56:01;;;;;;;;;4.67;4.67;;;;;20.69;32.49;101044.00;146599;599;48914;-80
2021/12/01 11:59:23;;;;;;;;;3.67;0.00;;;;;19.71;34.04;100876.53;146607;598;46020;-82
2021/12/01 12:02:40;;;;;;;;;28.25;26.00;;;;;18.92;32.24;100730.59;146604;594;46017;-81
2021/12/01 12:05:32;;;;;;;;;6.33;5.00;;;;;20.81;32.20;101051.19;146609;579;46010;-80
2021/12/01 12:09:02;;;;;;;;;2.67;2.67;;;;;20.96;35.71;101043.50;146608;613;46013;-80
2021/12/01 12:12:21;;;;;;;;;5.67;3.67;;;;;20.18;34.54;100887.81;146607;617;46020;-81
2021/12/01 12:15:13;;;;;;;;;6.00;6.00;;;;;21.32;31.98;101048.38;146608;631;46014;-81
2021/12/01 12:18:05;;;;;;;;;19.75;17.75;;;;;21.41;31.92;101042.38;146610;591;46010;-81
2021/12/01 12:21:17;;;;;;;;;7.00;5.75;;;;;21.50;34.20;101039.84;146603;564;46016;-81
2021/12/01 12:24:21;;;;;;;;;14.00;12.00;;;;;21.73;34.18;101028.66;146609;579;46011;-82
2021/12/01 12:27:37;;;;;;;;;14.25;13.00;;;;;21.02;33.21;100877.50;146606;588;47012;-81
2021/12/01 12:30:56;;;;;;;;;4.67;3.33;;;;;21.16;34.05;100861.84;146610;586;45020;-80
2021/12/01 12:33:56;;;;;;;;;5.67;4.00;;;;;22.28;32.65;101018.62;146605;591;46016;-82
2021/12/01 12:36:57;;;;;;;;;8.50;8.50;;;;;22.39;35.07;101016.94;146605;576;46020;-81
2021/12/01 12:39:51;;;;;;;;;4.33;4.33;;;;;22.41;31.08;101009.91;146605;635;46017;-83
2021/12/01 12:43:13;;;;;;;;;3.00;2.33;;;;;21.74;33.47;100861.50;146610;581;46020;-80
2021/12/01 12:46:21;;;;;;;;;6.00;5.00;;;;;22.80;33.02;101006.66;146607;599;46013;-81
2021/12/01 12:50:02;;;;;;;;;8.00;7.67;;;;;21.47;33.85;100746.09;146609;586;46020;-81
2021/12/01 12:52:57;;;;;;;;;4.33;3.67;;;;;23.14;30.97;101001.53;146607;591;47013;-82
2021/12/01 12:55:50;;;;;;;;;9.67;7.00;;;;;23.25;30.50;101004.25;146610;581;46010;-82
2021/12/01 12:58:42;;;;;;;;;14.00;12.25;;;;;23.32;31.04;101005.16;146607;616;46012;-82
2021/12/01 13:01:34;;;;;;;;;22.50;21.00;;;;;23.48;30.51;101004.31;146607;596;46011;-81
2021/12/01 13:05:10;;;;;;;;;2.00;2.00;;;;;23.62;33.03;101005.25;146606;618;47012;-81
2021/12/01 13:08:03;;;;;;;;;4.67;4.67;;;;;23.66;30.66;101004.34;146610;637;46010;-81
2021/12/01 13:10:55;;;;;;;;;5.00;5.00;;;;;23.64;31.13;101002.56;146604;691;46016;-80
2021/12/01 13:13:50;;;;;;;;;3.00;2.33;;;;;23.63;30.69;100995.53;146606;572;46020;-82
2021/12/01 13:16:43;;;;;;;;;3.33;2.67;;;;;23.65;30.83;100991.12;146602;593;47014;-81
2021/12/01 13:19:35;;;;;;;;;2.00;2.00;;;;;23.67;29.84;100987.59;146607;632;46020;-82
2021/12/01 13:22:27;;;;;;;;;5.33;5.33;;;;;23.64;31.03;100992.00;146607;637;46012;-82
2021/12/01 13:25:22;;;;;;;;;7.00;6.67;;;;;23.64;30.21;100989.34;146609;608;45030;-82
2021/12/01 13:28:16;;;;;;;;;18.00;15.33;;;;;23.57;30.54;100985.81;146606;641;46016;-80
2021/12/01 13:31:12;;;;;;;;;7.33;7.00;;;;;23.49;31.58;100977.88;146607;657;46021;-81
2021/12/01 13:34:41;;;;;;;;;8.00;5.00;;;;;23.36;33.01;100976.03;146606;584;46016;-80